sensor_id;sensor_type;location;lat;lon;timestamp;P1;durP1;ratioP1;P2;durP2;ratioP2
5507;SDS011;2776;51.046;6.772;2023-02-24T00:00:24;24.67;;;15.23;;
5507;SDS011;2776;51.046;6.772;2023-02-24T00:03:02;26.00;;;14.57;;
5507;SDS011;2776;51.046;6.772;2023-02-24T00:05:35;26.57;;;14.50;;
5507;SDS011;2776;51.046;6.772;2023-02-24T00:08:03;29.27;;;15.80;;
5507;SDS011;2776;51.046;6.772;2023-02-24T00:10:30;31.37;;;18.20;;
5507;SDS011;2776;51.046;6.772;2023-02-24T00:12:58;33.77;;;18.37;;
5507;SDS011;2776;51.046;6.772;2023-02-24T00:15:24;30.03;;;16.00;;
5507;SDS011;2776;51.046;6.772;2023-02-24T00:17:51;35.77;;;18.30;;
5507;SDS011;2776;51.046;6.772;2023-02-24T00:20:18;33.10;;;18.80;;
5507;SDS011;2776;51.046;6.772;2023-02-24T00:22:46;34.80;;;19.80;;
5507;SDS011;2776;51.046;6.772;2023-02-24T00:25:13;41.73;;;17.80;;
5507;SDS011;2776;51.046;6.772;2023-02-24T00:27:40;39.07;;;17.70;;
5507;SDS011;2776;51.046;6.772;2023-02-24T00:30:07;37.83;;;19.03;;
5507;SDS011;2776;51.046;6.772;2023-02-24T00:32:36;32.57;;;18.37;;
5507;SDS011;2776;51.046;6.772;2023-02-24T00:35:03;36.67;;;19.20;;
5507;SDS011;2776;51.046;6.772;2023-02-24T00:37:30;39.23;;;19.63;;
5507;SDS011;2776;51.046;6.772;2023-02-24T00:39:58;34.30;;;17.93;;
5507;SDS011;2776;51.046;6.772;2023-02-24T00:42:25;36.40;;;19.20;;
5507;SDS011;2776;51.046;6.772;2023-02-24T00:44:52;31.13;;;17.20;;
5507;SDS011;2776;51.046;6.772;2023-02-24T00:47:19;29.80;;;17.20;;
5507;SDS011;2776;51.046;6.772;2023-02-24T00:49:46;32.33;;;16.10;;
5507;SDS011;2776;51.046;6.772;2023-02-24T00:52:14;31.47;;;16.80;;
5507;SDS011;2776;51.046;6.772;2023-02-24T00:54:43;35.67;;;16.83;;
5507;SDS011;2776;51.046;6.772;2023-02-24T00:57:12;32.20;;;15.03;;
5507;SDS011;2776;51.046;6.772;2023-02-24T00:59:41;35.83;;;16.13;;
5507;SDS011;2776;51.046;6.772;2023-02-24T01:02:11;33.80;;;14.43;;
5507;SDS011;2776;51.046;6.772;2023-02-24T01:04:38;30.53;;;15.23;;
5507;SDS011;2776;51.046;6.772;2023-02-24T01:07:05;25.90;;;14.87;;
5507;SDS011;2776;51.046;6.772;2023-02-24T01:09:35;31.13;;;15.37;;
5507;SDS011;2776;51.046;6.772;2023-02-24T01:12:05;37.23;;;16.53;;
5507;SDS011;2776;51.046;6.772;2023-02-24T01:14:52;36.60;;;15.33;;
5507;SDS011;2776;51.046;6.772;2023-02-24T01:17:19;33.47;;;15.43;;
5507;SDS011;2776;51.046;6.772;2023-02-24T01:19:47;39.17;;;18.20;;
5507;SDS011;2776;51.046;6.772;2023-02-24T01:22:15;37.10;;;16.87;;
5507;SDS011;2776;51.046;6.772;2023-02-24T01:24:43;36.47;;;16.40;;
5507;SDS011;2776;51.046;6.772;2023-02-24T01:27:11;35.63;;;16.13;;
5507;SDS011;2776;51.046;6.772;2023-02-24T01:29:41;31.37;;;15.37;;
5507;SDS011;2776;51.046;6.772;2023-02-24T01:32:12;36.50;;;14.10;;
5507;SDS011;2776;51.046;6.772;2023-02-24T01:34:42;32.30;;;13.80;;
5507;SDS011;2776;51.046;6.772;2023-02-24T01:37:09;29.70;;;13.73;;
5507;SDS011;2776;51.046;6.772;2023-02-24T01:39:39;29.03;;;13.87;;
5507;SDS011;2776;51.046;6.772;2023-02-24T01:42:06;33.30;;;13.53;;
5507;SDS011;2776;51.046;6.772;2023-02-24T01:47:38;38.13;;;14.43;;
5507;SDS011;2776;51.046;6.772;2023-02-24T01:50:06;42.40;;;15.20;;
5507;SDS011;2776;51.046;6.772;2023-02-24T01:52:37;34.77;;;14.97;;
5507;SDS011;2776;51.046;6.772;2023-02-24T01:55:05;31.77;;;13.90;;
5507;SDS011;2776;51.046;6.772;2023-02-24T01:57:37;32.43;;;14.23;;
5507;SDS011;2776;51.046;6.772;2023-02-24T02:00:06;28.10;;;12.00;;
5507;SDS011;2776;51.046;6.772;2023-02-24T02:02:37;25.13;;;10.27;;
5507;SDS011;2776;51.046;6.772;2023-02-24T02:05:07;23.27;;;9.07;;
5507;SDS011;2776;51.046;6.772;2023-02-24T02:07:36;28.20;;;9.60;;
5507;SDS011;2776;51.046;6.772;2023-02-24T02:10:05;24.40;;;8.77;;
5507;SDS011;2776;51.046;6.772;2023-02-24T02:12:34;28.47;;;9.07;;
5507;SDS011;2776;51.046;6.772;2023-02-24T02:15:08;30.47;;;9.00;;
5507;SDS011;2776;51.046;6.772;2023-02-24T02:17:40;22.83;;;7.93;;
5507;SDS011;2776;51.046;6.772;2023-02-24T02:20:20;16.17;;;7.50;;
5507;SDS011;2776;51.046;6.772;2023-02-24T02:23:16;22.33;;;7.80;;
5507;SDS011;2776;51.046;6.772;2023-02-24T02:26:12;16.73;;;6.63;;
5507;SDS011;2776;51.046;6.772;2023-02-24T02:29:28;24.70;;;6.67;;
5507;SDS011;2776;51.046;6.772;2023-02-24T02:35:06;19.73;;;6.20;;
5507;SDS011;2776;51.046;6.772;2023-02-24T02:37:39;19.00;;;6.40;;
5507;SDS011;2776;51.046;6.772;2023-02-24T02:40:17;18.63;;;6.93;;
5507;SDS011;2776;51.046;6.772;2023-02-24T02:42:49;21.30;;;6.67;;
5507;SDS011;2776;51.046;6.772;2023-02-24T02:45:24;25.23;;;8.13;;
5507;SDS011;2776;51.046;6.772;2023-02-24T02:47:57;18.33;;;6.67;;
5507;SDS011;2776;51.046;6.772;2023-02-24T02:50:30;24.50;;;5.97;;
5507;SDS011;2776;51.046;6.772;2023-02-24T02:53:01;18.07;;;6.07;;
5507;SDS011;2776;51.046;6.772;2023-02-24T02:55:32;37.43;;;7.23;;
5507;SDS011;2776;51.046;6.772;2023-02-24T02:58:04;20.17;;;5.90;;
5507;SDS011;2776;51.046;6.772;2023-02-24T03:00:35;26.33;;;7.60;;
5507;SDS011;2776;51.046;6.772;2023-02-24T03:03:06;23.20;;;6.97;;
5507;SDS011;2776;51.046;6.772;2023-02-24T03:05:39;27.23;;;7.47;;
5507;SDS011;2776;51.046;6.772;2023-02-24T03:08:11;17.47;;;6.63;;
5507;SDS011;2776;51.046;6.772;2023-02-24T03:10:40;23.13;;;7.87;;
5507;SDS011;2776;51.046;6.772;2023-02-24T03:13:15;24.07;;;6.73;;
5507;SDS011;2776;51.046;6.772;2023-02-24T03:15:44;19.67;;;5.60;;
5507;SDS011;2776;51.046;6.772;2023-02-24T03:18:13;25.73;;;6.63;;
5507;SDS011;2776;51.046;6.772;2023-02-24T03:20:45;23.27;;;5.50;;
5507;SDS011;2776;51.046;6.772;2023-02-24T03:23:16;17.83;;;5.37;;
5507;SDS011;2776;51.046;6.772;2023-02-24T03:25:47;20.50;;;6.43;;
5507;SDS011;2776;51.046;6.772;2023-02-24T03:28:18;20.80;;;6.20;;
5507;SDS011;2776;51.046;6.772;2023-02-24T03:30:50;18.70;;;5.60;;
5507;SDS011;2776;51.046;6.772;2023-02-24T03:33:25;25.07;;;5.30;;
5507;SDS011;2776;51.046;6.772;2023-02-24T03:35:57;17.77;;;5.13;;
5507;SDS011;2776;51.046;6.772;2023-02-24T03:38:25;15.63;;;4.30;;
5507;SDS011;2776;51.046;6.772;2023-02-24T03:40:54;18.27;;;5.60;;
5507;SDS011;2776;51.046;6.772;2023-02-24T03:43:23;13.40;;;3.27;;
5507;SDS011;2776;51.046;6.772;2023-02-24T03:45:53;13.03;;;3.30;;
5507;SDS011;2776;51.046;6.772;2023-02-24T03:48:20;15.20;;;3.60;;
5507;SDS011;2776;51.046;6.772;2023-02-24T03:50:48;13.60;;;3.63;;
5507;SDS011;2776;51.046;6.772;2023-02-24T03:53:25;16.43;;;3.17;;
5507;SDS011;2776;51.046;6.772;2023-02-24T03:56:05;15.83;;;3.77;;
5507;SDS011;2776;51.046;6.772;2023-02-24T03:58:46;16.20;;;4.13;;
5507;SDS011;2776;51.046;6.772;2023-02-24T04:01:21;14.27;;;3.40;;
5507;SDS011;2776;51.046;6.772;2023-02-24T04:03:58;12.43;;;3.40;;
5507;SDS011;2776;51.046;6.772;2023-02-24T04:06:30;14.27;;;3.00;;
5507;SDS011;2776;51.046;6.772;2023-02-24T04:09:05;24.83;;;3.50;;
5507;SDS011;2776;51.046;6.772;2023-02-24T04:11:41;19.20;;;3.83;;
5507;SDS011;2776;51.046;6.772;2023-02-24T04:14:11;19.80;;;3.60;;
5507;SDS011;2776;51.046;6.772;2023-02-24T04:16:44;16.10;;;4.00;;
5507;SDS011;2776;51.046;6.772;2023-02-24T04:19:18;15.90;;;3.90;;
5507;SDS011;2776;51.046;6.772;2023-02-24T04:21:48;19.60;;;3.73;;
5507;SDS011;2776;51.046;6.772;2023-02-24T04:24:17;16.10;;;3.13;;
5507;SDS011;2776;51.046;6.772;2023-02-24T04:26:47;20.83;;;4.20;;
5507;SDS011;2776;51.046;6.772;2023-02-24T04:29:16;10.17;;;2.80;;
5507;SDS011;2776;51.046;6.772;2023-02-24T04:31:47;14.53;;;3.50;;
5507;SDS011;2776;51.046;6.772;2023-02-24T04:34:17;15.33;;;3.30;;
5507;SDS011;2776;51.046;6.772;2023-02-24T04:36:44;20.53;;;3.67;;
5507;SDS011;2776;51.046;6.772;2023-02-24T04:39:13;15.90;;;2.77;;
5507;SDS011;2776;51.046;6.772;2023-02-24T04:41:44;15.73;;;3.60;;
5507;SDS011;2776;51.046;6.772;2023-02-24T04:44:13;15.90;;;3.77;;
5507;SDS011;2776;51.046;6.772;2023-02-24T04:46:41;14.97;;;3.40;;
5507;SDS011;2776;51.046;6.772;2023-02-24T04:49:08;13.97;;;3.47;;
5507;SDS011;2776;51.046;6.772;2023-02-24T04:51:35;18.63;;;4.07;;
5507;SDS011;2776;51.046;6.772;2023-02-24T04:54:06;17.40;;;3.27;;
5507;SDS011;2776;51.046;6.772;2023-02-24T04:56:33;14.73;;;3.23;;
5507;SDS011;2776;51.046;6.772;2023-02-24T04:59:02;19.83;;;3.50;;
5507;SDS011;2776;51.046;6.772;2023-02-24T05:01:29;19.30;;;3.90;;
5507;SDS011;2776;51.046;6.772;2023-02-24T05:03:56;19.47;;;3.83;;
5507;SDS011;2776;51.046;6.772;2023-02-24T05:06:24;14.87;;;3.60;;
5507;SDS011;2776;51.046;6.772;2023-02-24T05:08:50;12.60;;;3.90;;
5507;SDS011;2776;51.046;6.772;2023-02-24T05:11:17;13.23;;;3.80;;
5507;SDS011;2776;51.046;6.772;2023-02-24T05:13:44;18.07;;;4.00;;
5507;SDS011;2776;51.046;6.772;2023-02-24T05:16:13;17.50;;;4.10;;
5507;SDS011;2776;51.046;6.772;2023-02-24T05:18:41;15.17;;;4.20;;
5507;SDS011;2776;51.046;6.772;2023-02-24T05:21:10;11.87;;;3.50;;
5507;SDS011;2776;51.046;6.772;2023-02-24T05:23:56;13.70;;;4.30;;
5507;SDS011;2776;51.046;6.772;2023-02-24T05:26:28;18.47;;;4.73;;
5507;SDS011;2776;51.046;6.772;2023-02-24T05:28:56;11.83;;;4.17;;
5507;SDS011;2776;51.046;6.772;2023-02-24T05:31:27;12.37;;;3.53;;
5507;SDS011;2776;51.046;6.772;2023-02-24T05:33:56;21.03;;;4.30;;
5507;SDS011;2776;51.046;6.772;2023-02-24T05:36:26;12.47;;;4.77;;
5507;SDS011;2776;51.046;6.772;2023-02-24T05:38:55;16.80;;;3.97;;
5507;SDS011;2776;51.046;6.772;2023-02-24T05:41:23;15.37;;;3.80;;
5507;SDS011;2776;51.046;6.772;2023-02-24T05:43:56;14.60;;;3.07;;
5507;SDS011;2776;51.046;6.772;2023-02-24T05:46:28;13.23;;;3.27;;
5507;SDS011;2776;51.046;6.772;2023-02-24T05:48:57;15.73;;;3.57;;
5507;SDS011;2776;51.046;6.772;2023-02-24T05:51:25;15.13;;;3.60;;
5507;SDS011;2776;51.046;6.772;2023-02-24T05:53:59;14.30;;;3.37;;
5507;SDS011;2776;51.046;6.772;2023-02-24T05:56:28;12.30;;;3.10;;
5507;SDS011;2776;51.046;6.772;2023-02-24T05:58:59;16.10;;;3.00;;
5507;SDS011;2776;51.046;6.772;2023-02-24T06:01:29;10.87;;;2.23;;
5507;SDS011;2776;51.046;6.772;2023-02-24T06:03:57;11.20;;;3.27;;
5507;SDS011;2776;51.046;6.772;2023-02-24T06:06:30;13.30;;;3.23;;
5507;SDS011;2776;51.046;6.772;2023-02-24T06:09:00;11.13;;;2.33;;
5507;SDS011;2776;51.046;6.772;2023-02-24T06:11:31;8.23;;;2.47;;
5507;SDS011;2776;51.046;6.772;2023-02-24T06:13:59;20.50;;;3.10;;
5507;SDS011;2776;51.046;6.772;2023-02-24T06:16:26;12.53;;;3.10;;
5507;SDS011;2776;51.046;6.772;2023-02-24T06:18:54;12.43;;;2.63;;
5507;SDS011;2776;51.046;6.772;2023-02-24T06:21:22;10.20;;;2.73;;
5507;SDS011;2776;51.046;6.772;2023-02-24T06:23:49;18.30;;;2.70;;
5507;SDS011;2776;51.046;6.772;2023-02-24T06:26:16;14.00;;;3.50;;
5507;SDS011;2776;51.046;6.772;2023-02-24T06:28:44;12.27;;;2.90;;
5507;SDS011;2776;51.046;6.772;2023-02-24T06:31:12;14.87;;;3.13;;
5507;SDS011;2776;51.046;6.772;2023-02-24T06:33:39;14.00;;;2.97;;
5507;SDS011;2776;51.046;6.772;2023-02-24T06:36:08;11.17;;;2.73;;
5507;SDS011;2776;51.046;6.772;2023-02-24T06:38:35;13.77;;;3.07;;
5507;SDS011;2776;51.046;6.772;2023-02-24T06:41:04;11.50;;;3.40;;
5507;SDS011;2776;51.046;6.772;2023-02-24T06:43:35;14.27;;;3.37;;
5507;SDS011;2776;51.046;6.772;2023-02-24T06:46:02;14.07;;;3.30;;
5507;SDS011;2776;51.046;6.772;2023-02-24T06:48:31;15.00;;;2.70;;
5507;SDS011;2776;51.046;6.772;2023-02-24T06:51:01;13.77;;;3.10;;
5507;SDS011;2776;51.046;6.772;2023-02-24T06:53:31;14.57;;;3.07;;
5507;SDS011;2776;51.046;6.772;2023-02-24T06:56:03;11.80;;;2.93;;
5507;SDS011;2776;51.046;6.772;2023-02-24T06:58:38;15.23;;;3.10;;
5507;SDS011;2776;51.046;6.772;2023-02-24T07:01:08;11.87;;;3.20;;
5507;SDS011;2776;51.046;6.772;2023-02-24T07:03:36;14.83;;;3.30;;
5507;SDS011;2776;51.046;6.772;2023-02-24T07:06:11;11.43;;;2.90;;
5507;SDS011;2776;51.046;6.772;2023-02-24T07:08:47;21.27;;;3.60;;
5507;SDS011;2776;51.046;6.772;2023-02-24T07:11:14;19.73;;;3.40;;
5507;SDS011;2776;51.046;6.772;2023-02-24T07:13:43;18.70;;;3.80;;
5507;SDS011;2776;51.046;6.772;2023-02-24T07:16:11;11.67;;;2.90;;
5507;SDS011;2776;51.046;6.772;2023-02-24T07:18:39;13.33;;;3.10;;
5507;SDS011;2776;51.046;6.772;2023-02-24T07:21:07;10.83;;;3.13;;
5507;SDS011;2776;51.046;6.772;2023-02-24T07:23:36;12.00;;;2.90;;
5507;SDS011;2776;51.046;6.772;2023-02-24T07:26:08;13.10;;;3.93;;
5507;SDS011;2776;51.046;6.772;2023-02-24T07:28:36;14.93;;;3.50;;
5507;SDS011;2776;51.046;6.772;2023-02-24T07:31:05;11.10;;;3.53;;
5507;SDS011;2776;51.046;6.772;2023-02-24T07:33:33;19.90;;;3.53;;
5507;SDS011;2776;51.046;6.772;2023-02-24T07:36:00;15.70;;;3.90;;
5507;SDS011;2776;51.046;6.772;2023-02-24T07:38:32;14.57;;;3.43;;
5507;SDS011;2776;51.046;6.772;2023-02-24T07:41:00;20.47;;;4.47;;
5507;SDS011;2776;51.046;6.772;2023-02-24T07:43:28;11.67;;;3.57;;
5507;SDS011;2776;51.046;6.772;2023-02-24T07:45:55;18.27;;;4.20;;
5507;SDS011;2776;51.046;6.772;2023-02-24T07:48:22;14.87;;;3.27;;
5507;SDS011;2776;51.046;6.772;2023-02-24T07:50:50;16.40;;;3.63;;
5507;SDS011;2776;51.046;6.772;2023-02-24T07:53:17;15.03;;;3.57;;
5507;SDS011;2776;51.046;6.772;2023-02-24T07:55:43;22.00;;;3.70;;
5507;SDS011;2776;51.046;6.772;2023-02-24T07:58:11;14.77;;;3.63;;
5507;SDS011;2776;51.046;6.772;2023-02-24T08:00:39;20.43;;;3.90;;
5507;SDS011;2776;51.046;6.772;2023-02-24T08:03:24;18.23;;;3.53;;
5507;SDS011;2776;51.046;6.772;2023-02-24T08:05:55;13.67;;;3.73;;
5507;SDS011;2776;51.046;6.772;2023-02-24T08:08:36;17.67;;;5.77;;
5507;SDS011;2776;51.046;6.772;2023-02-24T08:11:21;16.83;;;5.57;;
5507;SDS011;2776;51.046;6.772;2023-02-24T08:13:50;18.40;;;5.73;;
5507;SDS011;2776;51.046;6.772;2023-02-24T08:16:18;17.10;;;5.33;;
5507;SDS011;2776;51.046;6.772;2023-02-24T08:18:45;12.60;;;5.03;;
5507;SDS011;2776;51.046;6.772;2023-02-24T08:21:14;16.20;;;5.67;;
5507;SDS011;2776;51.046;6.772;2023-02-24T08:23:43;16.00;;;5.93;;
5507;SDS011;2776;51.046;6.772;2023-02-24T08:26:11;15.13;;;5.90;;
5507;SDS011;2776;51.046;6.772;2023-02-24T08:28:39;13.97;;;5.77;;
5507;SDS011;2776;51.046;6.772;2023-02-24T08:31:05;15.43;;;4.97;;
5507;SDS011;2776;51.046;6.772;2023-02-24T08:33:34;14.50;;;4.30;;
5507;SDS011;2776;51.046;6.772;2023-02-24T08:36:01;19.03;;;4.93;;
5507;SDS011;2776;51.046;6.772;2023-02-24T08:38:29;13.40;;;4.70;;
5507;SDS011;2776;51.046;6.772;2023-02-24T08:41:06;13.80;;;4.23;;
5507;SDS011;2776;51.046;6.772;2023-02-24T08:43:41;15.50;;;5.13;;
5507;SDS011;2776;51.046;6.772;2023-02-24T08:46:13;10.97;;;3.80;;
5507;SDS011;2776;51.046;6.772;2023-02-24T08:48:45;13.30;;;4.17;;
5507;SDS011;2776;51.046;6.772;2023-02-24T08:51:14;13.23;;;3.90;;
5507;SDS011;2776;51.046;6.772;2023-02-24T08:53:46;11.20;;;3.57;;
5507;SDS011;2776;51.046;6.772;2023-02-24T08:56:17;13.67;;;4.07;;
5507;SDS011;2776;51.046;6.772;2023-02-24T08:58:49;9.87;;;3.77;;
5507;SDS011;2776;51.046;6.772;2023-02-24T09:01:21;11.00;;;3.17;;
5507;SDS011;2776;51.046;6.772;2023-02-24T09:03:52;12.13;;;3.53;;
5507;SDS011;2776;51.046;6.772;2023-02-24T09:06:22;11.37;;;3.37;;
5507;SDS011;2776;51.046;6.772;2023-02-24T09:08:52;7.90;;;2.70;;
5507;SDS011;2776;51.046;6.772;2023-02-24T09:11:41;11.07;;;3.63;;
5507;SDS011;2776;51.046;6.772;2023-02-24T09:14:09;13.37;;;2.67;;
5507;SDS011;2776;51.046;6.772;2023-02-24T09:16:41;12.33;;;3.30;;
5507;SDS011;2776;51.046;6.772;2023-02-24T09:19:26;9.53;;;3.00;;
5507;SDS011;2776;51.046;6.772;2023-02-24T09:22:26;8.53;;;2.83;;
5507;SDS011;2776;51.046;6.772;2023-02-24T09:24:55;9.70;;;2.90;;
5507;SDS011;2776;51.046;6.772;2023-02-24T09:27:41;13.17;;;4.47;;
5507;SDS011;2776;51.046;6.772;2023-02-24T09:30:11;12.90;;;3.77;;
5507;SDS011;2776;51.046;6.772;2023-02-24T09:32:59;7.83;;;3.60;;
5507;SDS011;2776;51.046;6.772;2023-02-24T09:35:32;12.53;;;3.70;;
5507;SDS011;2776;51.046;6.772;2023-02-24T09:38:01;12.10;;;3.50;;
5507;SDS011;2776;51.046;6.772;2023-02-24T09:40:30;15.30;;;4.00;;
5507;SDS011;2776;51.046;6.772;2023-02-24T09:43:04;13.57;;;4.53;;
5507;SDS011;2776;51.046;6.772;2023-02-24T09:45:41;9.73;;;4.20;;
5507;SDS011;2776;51.046;6.772;2023-02-24T09:48:31;12.70;;;4.10;;
5507;SDS011;2776;51.046;6.772;2023-02-24T09:51:10;10.87;;;4.20;;
5507;SDS011;2776;51.046;6.772;2023-02-24T09:53:45;12.37;;;3.53;;
5507;SDS011;2776;51.046;6.772;2023-02-24T09:56:17;9.27;;;3.97;;
5507;SDS011;2776;51.046;6.772;2023-02-24T09:58:54;12.27;;;5.47;;
5507;SDS011;2776;51.046;6.772;2023-02-24T10:01:39;14.43;;;4.37;;
5507;SDS011;2776;51.046;6.772;2023-02-24T10:04:14;6.77;;;3.47;;
5507;SDS011;2776;51.046;6.772;2023-02-24T10:07:03;11.77;;;4.70;;
5507;SDS011;2776;51.046;6.772;2023-02-24T10:09:34;8.17;;;3.70;;
5507;SDS011;2776;51.046;6.772;2023-02-24T10:12:06;9.90;;;4.13;;
5507;SDS011;2776;51.046;6.772;2023-02-24T10:14:42;10.63;;;4.67;;
5507;SDS011;2776;51.046;6.772;2023-02-24T10:17:17;8.83;;;3.77;;
5507;SDS011;2776;51.046;6.772;2023-02-24T10:19:48;10.93;;;5.00;;
5507;SDS011;2776;51.046;6.772;2023-02-24T10:22:22;9.70;;;4.60;;
5507;SDS011;2776;51.046;6.772;2023-02-24T10:25:00;9.30;;;4.73;;
5507;SDS011;2776;51.046;6.772;2023-02-24T10:27:40;9.60;;;4.63;;
5507;SDS011;2776;51.046;6.772;2023-02-24T10:30:20;10.80;;;4.33;;
5507;SDS011;2776;51.046;6.772;2023-02-24T10:33:04;11.33;;;5.00;;
5507;SDS011;2776;51.046;6.772;2023-02-24T10:35:44;11.60;;;5.17;;
5507;SDS011;2776;51.046;6.772;2023-02-24T10:38:13;10.67;;;4.87;;
5507;SDS011;2776;51.046;6.772;2023-02-24T10:40:44;10.83;;;5.00;;
5507;SDS011;2776;51.046;6.772;2023-02-24T10:43:19;11.47;;;5.17;;
5507;SDS011;2776;51.046;6.772;2023-02-24T10:45:54;11.60;;;5.37;;
5507;SDS011;2776;51.046;6.772;2023-02-24T10:48:30;11.70;;;5.23;;
5507;SDS011;2776;51.046;6.772;2023-02-24T10:51:09;11.13;;;4.70;;
5507;SDS011;2776;51.046;6.772;2023-02-24T10:53:44;11.03;;;4.07;;
5507;SDS011;2776;51.046;6.772;2023-02-24T10:56:17;8.67;;;4.50;;
5507;SDS011;2776;51.046;6.772;2023-02-24T10:59:08;10.50;;;4.73;;
5507;SDS011;2776;51.046;6.772;2023-02-24T11:01:54;9.40;;;4.43;;
5507;SDS011;2776;51.046;6.772;2023-02-24T11:04:31;16.07;;;4.73;;
5507;SDS011;2776;51.046;6.772;2023-02-24T11:07:18;12.03;;;5.50;;
5507;SDS011;2776;51.046;6.772;2023-02-24T11:10:02;12.87;;;4.87;;
5507;SDS011;2776;51.046;6.772;2023-02-24T11:12:36;12.17;;;4.20;;
5507;SDS011;2776;51.046;6.772;2023-02-24T11:15:26;15.47;;;4.63;;
5507;SDS011;2776;51.046;6.772;2023-02-24T11:18:15;9.57;;;4.13;;
5507;SDS011;2776;51.046;6.772;2023-02-24T11:20:47;10.93;;;3.83;;
5507;SDS011;2776;51.046;6.772;2023-02-24T11:23:17;10.03;;;3.70;;
5507;SDS011;2776;51.046;6.772;2023-02-24T11:25:49;13.53;;;3.83;;
5507;SDS011;2776;51.046;6.772;2023-02-24T11:28:24;10.43;;;4.67;;
5507;SDS011;2776;51.046;6.772;2023-02-24T11:31:04;13.30;;;2.90;;
5507;SDS011;2776;51.046;6.772;2023-02-24T11:33:42;12.67;;;3.27;;
5507;SDS011;2776;51.046;6.772;2023-02-24T11:36:16;12.60;;;3.57;;
5507;SDS011;2776;51.046;6.772;2023-02-24T11:38:53;7.73;;;3.37;;
5507;SDS011;2776;51.046;6.772;2023-02-24T11:41:29;11.27;;;2.57;;
5507;SDS011;2776;51.046;6.772;2023-02-24T11:44:02;10.53;;;2.87;;
5507;SDS011;2776;51.046;6.772;2023-02-24T11:46:36;9.30;;;3.37;;
5507;SDS011;2776;51.046;6.772;2023-02-24T11:49:08;9.80;;;3.13;;
5507;SDS011;2776;51.046;6.772;2023-02-24T11:51:43;12.53;;;3.67;;
5507;SDS011;2776;51.046;6.772;2023-02-24T11:54:10;12.50;;;3.50;;
5507;SDS011;2776;51.046;6.772;2023-02-24T11:56:41;9.07;;;3.60;;
5507;SDS011;2776;51.046;6.772;2023-02-24T11:59:11;8.47;;;3.20;;
5507;SDS011;2776;51.046;6.772;2023-02-24T12:01:44;9.70;;;3.10;;
5507;SDS011;2776;51.046;6.772;2023-02-24T12:04:16;10.13;;;3.60;;
5507;SDS011;2776;51.046;6.772;2023-02-24T12:06:49;7.37;;;3.60;;
5507;SDS011;2776;51.046;6.772;2023-02-24T12:09:22;6.60;;;3.47;;
5507;SDS011;2776;51.046;6.772;2023-02-24T12:11:56;10.50;;;3.87;;
5507;SDS011;2776;51.046;6.772;2023-02-24T12:14:31;11.00;;;3.60;;
5507;SDS011;2776;51.046;6.772;2023-02-24T12:17:03;10.80;;;3.37;;
5507;SDS011;2776;51.046;6.772;2023-02-24T12:19:43;11.83;;;3.73;;
5507;SDS011;2776;51.046;6.772;2023-02-24T12:22:21;11.50;;;3.63;;
5507;SDS011;2776;51.046;6.772;2023-02-24T12:24:52;13.30;;;4.27;;
5507;SDS011;2776;51.046;6.772;2023-02-24T12:27:24;11.23;;;3.77;;
5507;SDS011;2776;51.046;6.772;2023-02-24T12:30:20;8.90;;;3.37;;
5507;SDS011;2776;51.046;6.772;2023-02-24T12:33:15;9.27;;;3.77;;
5507;SDS011;2776;51.046;6.772;2023-02-24T12:36:08;12.37;;;3.43;;
5507;SDS011;2776;51.046;6.772;2023-02-24T12:38:46;9.10;;;3.43;;
5507;SDS011;2776;51.046;6.772;2023-02-24T12:41:27;13.40;;;4.23;;
5507;SDS011;2776;51.046;6.772;2023-02-24T12:44:13;12.13;;;3.77;;
5507;SDS011;2776;51.046;6.772;2023-02-24T12:46:47;18.80;;;4.20;;
5507;SDS011;2776;51.046;6.772;2023-02-24T12:49:25;16.50;;;3.80;;
5507;SDS011;2776;51.046;6.772;2023-02-24T12:52:02;10.67;;;3.20;;
5507;SDS011;2776;51.046;6.772;2023-02-24T12:54:39;14.00;;;4.00;;
5507;SDS011;2776;51.046;6.772;2023-02-24T12:57:18;11.17;;;3.40;;
5507;SDS011;2776;51.046;6.772;2023-02-24T12:59:53;10.00;;;3.40;;
5507;SDS011;2776;51.046;6.772;2023-02-24T13:02:22;10.80;;;3.57;;
5507;SDS011;2776;51.046;6.772;2023-02-24T13:04:57;12.23;;;3.27;;
5507;SDS011;2776;51.046;6.772;2023-02-24T13:07:41;15.13;;;4.03;;
5507;SDS011;2776;51.046;6.772;2023-02-24T13:10:20;9.50;;;4.30;;
5507;SDS011;2776;51.046;6.772;2023-02-24T13:12:56;11.80;;;3.73;;
5507;SDS011;2776;51.046;6.772;2023-02-24T13:15:31;11.03;;;3.47;;
5507;SDS011;2776;51.046;6.772;2023-02-24T13:17:58;11.23;;;4.00;;
5507;SDS011;2776;51.046;6.772;2023-02-24T13:20:26;12.60;;;3.33;;
5507;SDS011;2776;51.046;6.772;2023-02-24T13:22:55;11.73;;;3.50;;
5507;SDS011;2776;51.046;6.772;2023-02-24T13:25:28;11.87;;;3.77;;
5507;SDS011;2776;51.046;6.772;2023-02-24T13:27:58;9.87;;;3.00;;
5507;SDS011;2776;51.046;6.772;2023-02-24T13:30:33;13.10;;;3.17;;
5507;SDS011;2776;51.046;6.772;2023-02-24T13:33:03;9.83;;;3.17;;
5507;SDS011;2776;51.046;6.772;2023-02-24T13:35:33;8.40;;;2.80;;
5507;SDS011;2776;51.046;6.772;2023-02-24T13:38:21;9.30;;;3.07;;
5507;SDS011;2776;51.046;6.772;2023-02-24T13:40:50;8.80;;;2.97;;
5507;SDS011;2776;51.046;6.772;2023-02-24T13:43:24;16.13;;;3.47;;
5507;SDS011;2776;51.046;6.772;2023-02-24T13:45:55;12.77;;;3.30;;
5507;SDS011;2776;51.046;6.772;2023-02-24T13:51:17;8.30;;;2.73;;
5507;SDS011;2776;51.046;6.772;2023-02-24T13:53:57;8.77;;;3.23;;
5507;SDS011;2776;51.046;6.772;2023-02-24T13:56:37;12.13;;;4.20;;
5507;SDS011;2776;51.046;6.772;2023-02-24T14:02:16;7.43;;;3.23;;
5507;SDS011;2776;51.046;6.772;2023-02-24T14:04:46;12.43;;;3.63;;
5507;SDS011;2776;51.046;6.772;2023-02-24T14:07:17;11.97;;;3.37;;
5507;SDS011;2776;51.046;6.772;2023-02-24T14:09:47;10.77;;;3.67;;
5507;SDS011;2776;51.046;6.772;2023-02-24T14:12:19;10.33;;;3.40;;
5507;SDS011;2776;51.046;6.772;2023-02-24T14:14:49;15.47;;;3.53;;
5507;SDS011;2776;51.046;6.772;2023-02-24T14:17:22;9.23;;;2.93;;
5507;SDS011;2776;51.046;6.772;2023-02-24T14:19:54;10.07;;;3.63;;
5507;SDS011;2776;51.046;6.772;2023-02-24T14:22:32;13.17;;;3.80;;
5507;SDS011;2776;51.046;6.772;2023-02-24T14:25:00;10.23;;;3.60;;
5507;SDS011;2776;51.046;6.772;2023-02-24T14:27:27;10.97;;;3.43;;
5507;SDS011;2776;51.046;6.772;2023-02-24T14:29:54;8.63;;;3.20;;
5507;SDS011;2776;51.046;6.772;2023-02-24T14:32:23;11.37;;;4.13;;
5507;SDS011;2776;51.046;6.772;2023-02-24T14:34:51;11.73;;;4.20;;
5507;SDS011;2776;51.046;6.772;2023-02-24T14:37:20;14.33;;;5.20;;
5507;SDS011;2776;51.046;6.772;2023-02-24T14:39:49;13.00;;;4.57;;
5507;SDS011;2776;51.046;6.772;2023-02-24T14:42:17;9.37;;;3.77;;
5507;SDS011;2776;51.046;6.772;2023-02-24T14:44:46;14.27;;;4.37;;
5507;SDS011;2776;51.046;6.772;2023-02-24T14:47:14;10.83;;;3.90;;
5507;SDS011;2776;51.046;6.772;2023-02-24T14:49:51;11.60;;;4.17;;
5507;SDS011;2776;51.046;6.772;2023-02-24T14:52:23;6.60;;;3.67;;
5507;SDS011;2776;51.046;6.772;2023-02-24T14:54:55;9.17;;;4.17;;
5507;SDS011;2776;51.046;6.772;2023-02-24T14:57:26;9.93;;;4.20;;
5507;SDS011;2776;51.046;6.772;2023-02-24T14:59:56;10.90;;;4.00;;
5507;SDS011;2776;51.046;6.772;2023-02-24T15:02:31;9.60;;;3.90;;
5507;SDS011;2776;51.046;6.772;2023-02-24T15:05:00;13.63;;;4.07;;
5507;SDS011;2776;51.046;6.772;2023-02-24T15:07:27;8.87;;;3.47;;
5507;SDS011;2776;51.046;6.772;2023-02-24T15:09:56;14.53;;;4.80;;
5507;SDS011;2776;51.046;6.772;2023-02-24T15:12:26;14.50;;;4.93;;
5507;SDS011;2776;51.046;6.772;2023-02-24T15:14:56;12.57;;;4.20;;
5507;SDS011;2776;51.046;6.772;2023-02-24T15:17:25;7.87;;;3.97;;
5507;SDS011;2776;51.046;6.772;2023-02-24T15:19:53;10.60;;;4.40;;
5507;SDS011;2776;51.046;6.772;2023-02-24T15:22:22;17.83;;;4.97;;
5507;SDS011;2776;51.046;6.772;2023-02-24T15:24:50;14.17;;;5.70;;
5507;SDS011;2776;51.046;6.772;2023-02-24T15:27:21;11.97;;;4.50;;
5507;SDS011;2776;51.046;6.772;2023-02-24T15:29:57;13.57;;;5.10;;
5507;SDS011;2776;51.046;6.772;2023-02-24T15:32:27;11.20;;;4.60;;
5507;SDS011;2776;51.046;6.772;2023-02-24T15:34:56;13.53;;;5.07;;
5507;SDS011;2776;51.046;6.772;2023-02-24T15:37:25;10.20;;;5.27;;
5507;SDS011;2776;51.046;6.772;2023-02-24T15:39:58;12.60;;;5.20;;
5507;SDS011;2776;51.046;6.772;2023-02-24T15:42:30;14.10;;;5.97;;